Bloomington (BMI/KBMI)

Map

Information

Location
Bloomington, IL
Local Time
18:38 / 6:38 pm
GMT Time
23:38 / 11:38 pm
Gates
A1
No FAA reported delays
METAR KBMI 232256Z 12005KT 10SM CLR 30/18 A3004 RMK AO2 SLP181 T03000183
TAF KBMI 231737Z 2318/2418 15008KT P6SM SCT050 FM240100 13005KT P6SM SCT200